sensor_id;sensor_type;location;lat;lon;timestamp;temperature;humidity
14093;DHT22;7123;49.468;10.992;2022-08-21T00:01:41;22.20;99.90
14093;DHT22;7123;49.468;10.992;2022-08-21T00:04:09;22.10;99.90
14093;DHT22;7123;49.468;10.992;2022-08-21T00:06:40;22.20;99.90
14093;DHT22;7123;49.468;10.992;2022-08-21T00:09:08;22.20;99.90
14093;DHT22;7123;49.468;10.992;2022-08-21T00:11:36;22.20;99.90
14093;DHT22;7123;49.468;10.992;2022-08-21T00:14:04;22.20;99.90
14093;DHT22;7123;49.468;10.992;2022-08-21T00:16:33;22.20;99.90
14093;DHT22;7123;49.468;10.992;2022-08-21T00:19:00;22.20;99.90
14093;DHT22;7123;49.468;10.992;2022-08-21T00:21:27;22.30;99.90
14093;DHT22;7123;49.468;10.992;2022-08-21T00:23:53;22.30;99.90
14093;DHT22;7123;49.468;10.992;2022-08-21T00:26:20;22.30;99.90
14093;DHT22;7123;49.468;10.992;2022-08-21T00:28:47;22.20;99.90
14093;DHT22;7123;49.468;10.992;2022-08-21T00:31:16;22.20;99.90
14093;DHT22;7123;49.468;10.992;2022-08-21T00:33:42;22.20;99.90
14093;DHT22;7123;49.468;10.992;2022-08-21T00:36:09;22.30;99.90
14093;DHT22;7123;49.468;10.992;2022-08-21T00:38:37;22.30;99.90
14093;DHT22;7123;49.468;10.992;2022-08-21T00:41:06;22.30;99.90
14093;DHT22;7123;49.468;10.992;2022-08-21T00:43:53;22.30;99.90
14093;DHT22;7123;49.468;10.992;2022-08-21T00:46:21;22.20;99.90
14093;DHT22;7123;49.468;10.992;2022-08-21T00:48:53;22.20;99.90
14093;DHT22;7123;49.468;10.992;2022-08-21T00:51:49;22.10;99.90
14093;DHT22;7123;49.468;10.992;2022-08-21T00:54:17;21.60;99.90
14093;DHT22;7123;49.468;10.992;2022-08-21T00:56:50;21.30;99.90
14093;DHT22;7123;49.468;10.992;2022-08-21T00:59:19;21.30;99.90
14093;DHT22;7123;49.468;10.992;2022-08-21T01:01:46;21.40;99.90
14093;DHT22;7123;49.468;10.992;2022-08-21T01:04:13;21.40;99.90
14093;DHT22;7123;49.468;10.992;2022-08-21T01:06:42;21.20;99.90
14093;DHT22;7123;49.468;10.992;2022-08-21T01:09:09;21.10;99.90
14093;DHT22;7123;49.468;10.992;2022-08-21T01:11:36;21.30;99.90
14093;DHT22;7123;49.468;10.992;2022-08-21T01:14:03;21.30;99.90
14093;DHT22;7123;49.468;10.992;2022-08-21T01:16:30;21.40;99.90
14093;DHT22;7123;49.468;10.992;2022-08-21T01:18:57;21.50;99.90
14093;DHT22;7123;49.468;10.992;2022-08-21T01:21:26;21.50;99.90
14093;DHT22;7123;49.468;10.992;2022-08-21T01:23:55;21.50;99.90
14093;DHT22;7123;49.468;10.992;2022-08-21T01:26:29;21.60;99.90
14093;DHT22;7123;49.468;10.992;2022-08-21T01:29:02;21.60;99.90
14093;DHT22;7123;49.468;10.992;2022-08-21T01:31:31;21.60;99.90
14093;DHT22;7123;49.468;10.992;2022-08-21T01:33:59;21.70;99.90
14093;DHT22;7123;49.468;10.992;2022-08-21T01:36:27;21.70;99.90
14093;DHT22;7123;49.468;10.992;2022-08-21T01:38:54;21.70;99.90
14093;DHT22;7123;49.468;10.992;2022-08-21T01:41:20;21.70;99.90
14093;DHT22;7123;49.468;10.992;2022-08-21T01:43:47;21.70;99.90
14093;DHT22;7123;49.468;10.992;2022-08-21T01:46:15;21.70;99.90
14093;DHT22;7123;49.468;10.992;2022-08-21T01:48:42;21.70;99.90
14093;DHT22;7123;49.468;10.992;2022-08-21T01:51:09;21.80;99.90
14093;DHT22;7123;49.468;10.992;2022-08-21T01:53:36;21.80;99.90
14093;DHT22;7123;49.468;10.992;2022-08-21T01:56:06;21.80;99.90
14093;DHT22;7123;49.468;10.992;2022-08-21T01:58:39;21.80;99.90
14093;DHT22;7123;49.468;10.992;2022-08-21T02:01:06;21.80;99.90
14093;DHT22;7123;49.468;10.992;2022-08-21T02:03:33;21.80;99.90
14093;DHT22;7123;49.468;10.992;2022-08-21T02:06:05;21.80;99.90
14093;DHT22;7123;49.468;10.992;2022-08-21T02:08:33;21.80;99.90
14093;DHT22;7123;49.468;10.992;2022-08-21T02:11:00;21.70;99.90
14093;DHT22;7123;49.468;10.992;2022-08-21T02:13:27;21.70;99.90
14093;DHT22;7123;49.468;10.992;2022-08-21T02:15:53;21.70;99.90
14093;DHT22;7123;49.468;10.992;2022-08-21T02:18:20;21.70;99.90
14093;DHT22;7123;49.468;10.992;2022-08-21T02:20:48;21.70;99.90
14093;DHT22;7123;49.468;10.992;2022-08-21T02:23:22;21.70;99.90
14093;DHT22;7123;49.468;10.992;2022-08-21T02:25:55;21.70;99.90
14093;DHT22;7123;49.468;10.992;2022-08-21T02:28:22;21.70;99.90
14093;DHT22;7123;49.468;10.992;2022-08-21T02:30:51;21.70;99.90
14093;DHT22;7123;49.468;10.992;2022-08-21T02:33:18;21.70;99.90
14093;DHT22;7123;49.468;10.992;2022-08-21T02:35:46;21.20;99.90
14093;DHT22;7123;49.468;10.992;2022-08-21T02:38:16;20.70;99.90
14093;DHT22;7123;49.468;10.992;2022-08-21T02:40:45;20.50;99.90
14093;DHT22;7123;49.468;10.992;2022-08-21T02:43:17;20.50;99.90
14093;DHT22;7123;49.468;10.992;2022-08-21T02:45:46;20.40;99.90
14093;DHT22;7123;49.468;10.992;2022-08-21T02:48:17;20.40;99.90
14093;DHT22;7123;49.468;10.992;2022-08-21T02:50:51;20.30;99.90
14093;DHT22;7123;49.468;10.992;2022-08-21T02:53:19;20.40;99.90
14093;DHT22;7123;49.468;10.992;2022-08-21T02:55:48;20.50;99.90
14093;DHT22;7123;49.468;10.992;2022-08-21T02:58:19;20.60;99.90
14093;DHT22;7123;49.468;10.992;2022-08-21T03:00:46;20.70;99.90
14093;DHT22;7123;49.468;10.992;2022-08-21T03:03:13;20.80;99.90
14093;DHT22;7123;49.468;10.992;2022-08-21T03:05:42;21.00;99.90
14093;DHT22;7123;49.468;10.992;2022-08-21T03:08:12;21.10;99.90
14093;DHT22;7123;49.468;10.992;2022-08-21T03:10:43;21.10;99.90
14093;DHT22;7123;49.468;10.992;2022-08-21T03:13:10;21.20;99.90
14093;DHT22;7123;49.468;10.992;2022-08-21T03:15:37;21.30;99.90
14093;DHT22;7123;49.468;10.992;2022-08-21T03:18:04;21.30;99.90
14093;DHT22;7123;49.468;10.992;2022-08-21T03:20:32;21.30;99.90
14093;DHT22;7123;49.468;10.992;2022-08-21T03:22:59;21.30;99.90
14093;DHT22;7123;49.468;10.992;2022-08-21T03:25:28;21.30;99.90
14093;DHT22;7123;49.468;10.992;2022-08-21T03:28:08;21.10;99.90
14093;DHT22;7123;49.468;10.992;2022-08-21T03:30:38;20.60;99.90
14093;DHT22;7123;49.468;10.992;2022-08-21T03:33:05;20.30;99.90
14093;DHT22;7123;49.468;10.992;2022-08-21T03:35:32;20.00;99.90
14093;DHT22;7123;49.468;10.992;2022-08-21T03:37:58;19.80;99.90
14093;DHT22;7123;49.468;10.992;2022-08-21T03:40:26;19.60;99.90
14093;DHT22;7123;49.468;10.992;2022-08-21T03:42:53;19.50;99.90
14093;DHT22;7123;49.468;10.992;2022-08-21T03:45:20;19.50;99.90
14093;DHT22;7123;49.468;10.992;2022-08-21T03:47:59;19.70;99.90
14093;DHT22;7123;49.468;10.992;2022-08-21T03:50:30;19.90;99.90
14093;DHT22;7123;49.468;10.992;2022-08-21T03:53:00;20.10;99.90
14093;DHT22;7123;49.468;10.992;2022-08-21T03:55:27;20.20;99.90
14093;DHT22;7123;49.468;10.992;2022-08-21T03:57:53;20.10;99.90
14093;DHT22;7123;49.468;10.992;2022-08-21T04:00:21;20.00;99.90
14093;DHT22;7123;49.468;10.992;2022-08-21T04:02:48;20.10;99.90
14093;DHT22;7123;49.468;10.992;2022-08-21T04:05:17;20.30;99.90
14093;DHT22;7123;49.468;10.992;2022-08-21T04:07:55;20.30;99.90
14093;DHT22;7123;49.468;10.992;2022-08-21T04:10:23;20.40;99.90
14093;DHT22;7123;49.468;10.992;2022-08-21T04:12:52;20.60;99.90
14093;DHT22;7123;49.468;10.992;2022-08-21T04:15:20;20.60;99.90
14093;DHT22;7123;49.468;10.992;2022-08-21T04:17:47;20.70;99.90
14093;DHT22;7123;49.468;10.992;2022-08-21T04:20:16;20.80;99.90
14093;DHT22;7123;49.468;10.992;2022-08-21T04:22:43;20.90;99.90
14093;DHT22;7123;49.468;10.992;2022-08-21T04:25:12;20.90;99.90
14093;DHT22;7123;49.468;10.992;2022-08-21T04:27:39;21.00;99.90
14093;DHT22;7123;49.468;10.992;2022-08-21T04:30:07;21.00;99.90
14093;DHT22;7123;49.468;10.992;2022-08-21T04:32:36;21.10;99.90
14093;DHT22;7123;49.468;10.992;2022-08-21T04:35:09;21.10;99.90
14093;DHT22;7123;49.468;10.992;2022-08-21T04:37:36;21.10;99.90
14093;DHT22;7123;49.468;10.992;2022-08-21T04:40:09;21.10;99.90
14093;DHT22;7123;49.468;10.992;2022-08-21T04:42:46;21.10;99.90
14093;DHT22;7123;49.468;10.992;2022-08-21T04:47:53;21.00;99.90
14093;DHT22;7123;49.468;10.992;2022-08-21T04:50:22;20.80;99.90
14093;DHT22;7123;49.468;10.992;2022-08-21T04:52:51;20.70;99.90
14093;DHT22;7123;49.468;10.992;2022-08-21T04:55:18;20.60;99.90
14093;DHT22;7123;49.468;10.992;2022-08-21T04:57:46;20.60;99.90
14093;DHT22;7123;49.468;10.992;2022-08-21T05:00:16;20.60;99.90
14093;DHT22;7123;49.468;10.992;2022-08-21T05:02:45;20.60;99.90
14093;DHT22;7123;49.468;10.992;2022-08-21T05:05:15;20.70;99.90
14093;DHT22;7123;49.468;10.992;2022-08-21T05:07:42;20.80;99.90
14093;DHT22;7123;49.468;10.992;2022-08-21T05:10:13;20.80;99.90
14093;DHT22;7123;49.468;10.992;2022-08-21T05:12:42;20.80;99.90
14093;DHT22;7123;49.468;10.992;2022-08-21T05:15:10;20.80;99.90
14093;DHT22;7123;49.468;10.992;2022-08-21T05:17:42;20.90;99.90
14093;DHT22;7123;49.468;10.992;2022-08-21T05:20:19;20.90;99.90
14093;DHT22;7123;49.468;10.992;2022-08-21T05:22:46;21.00;99.90
14093;DHT22;7123;49.468;10.992;2022-08-21T05:25:12;21.00;99.90
14093;DHT22;7123;49.468;10.992;2022-08-21T05:27:39;20.90;99.90
14093;DHT22;7123;49.468;10.992;2022-08-21T05:30:09;20.80;99.90
14093;DHT22;7123;49.468;10.992;2022-08-21T05:32:36;20.80;99.90
14093;DHT22;7123;49.468;10.992;2022-08-21T05:35:07;20.70;99.90
14093;DHT22;7123;49.468;10.992;2022-08-21T05:37:34;20.60;99.90
14093;DHT22;7123;49.468;10.992;2022-08-21T05:40:02;20.60;99.90
14093;DHT22;7123;49.468;10.992;2022-08-21T05:42:47;20.60;99.90
14093;DHT22;7123;49.468;10.992;2022-08-21T05:45:21;20.70;99.90
14093;DHT22;7123;49.468;10.992;2022-08-21T05:48:16;20.70;99.90
14093;DHT22;7123;49.468;10.992;2022-08-21T05:50:45;20.80;99.90
14093;DHT22;7123;49.468;10.992;2022-08-21T05:53:13;20.80;99.90
14093;DHT22;7123;49.468;10.992;2022-08-21T05:55:41;20.90;99.90
14093;DHT22;7123;49.468;10.992;2022-08-21T05:58:13;20.90;99.90
14093;DHT22;7123;49.468;10.992;2022-08-21T06:00:40;20.90;99.90
14093;DHT22;7123;49.468;10.992;2022-08-21T06:03:16;20.90;99.90
14093;DHT22;7123;49.468;10.992;2022-08-21T06:05:44;20.90;99.90
14093;DHT22;7123;49.468;10.992;2022-08-21T06:08:12;20.90;99.90
14093;DHT22;7123;49.468;10.992;2022-08-21T06:10:38;20.80;99.90
14093;DHT22;7123;49.468;10.992;2022-08-21T06:13:05;20.80;99.90
14093;DHT22;7123;49.468;10.992;2022-08-21T06:15:32;20.80;99.90
14093;DHT22;7123;49.468;10.992;2022-08-21T06:17:59;20.80;99.90
14093;DHT22;7123;49.468;10.992;2022-08-21T06:20:26;20.60;99.90
14093;DHT22;7123;49.468;10.992;2022-08-21T06:22:52;20.40;99.90
14093;DHT22;7123;49.468;10.992;2022-08-21T06:25:19;20.20;99.90
14093;DHT22;7123;49.468;10.992;2022-08-21T06:27:46;20.20;99.90
14093;DHT22;7123;49.468;10.992;2022-08-21T06:30:13;20.30;99.90
14093;DHT22;7123;49.468;10.992;2022-08-21T06:32:40;20.40;99.90
14093;DHT22;7123;49.468;10.992;2022-08-21T06:35:07;20.50;99.90
14093;DHT22;7123;49.468;10.992;2022-08-21T06:37:34;20.60;99.90
14093;DHT22;7123;49.468;10.992;2022-08-21T06:40:02;20.70;99.90
14093;DHT22;7123;49.468;10.992;2022-08-21T06:42:29;20.80;99.90
14093;DHT22;7123;49.468;10.992;2022-08-21T06:44:58;20.80;99.90
14093;DHT22;7123;49.468;10.992;2022-08-21T06:47:24;20.90;99.90
14093;DHT22;7123;49.468;10.992;2022-08-21T06:49:51;20.90;99.90
14093;DHT22;7123;49.468;10.992;2022-08-21T06:52:18;21.00;99.90
14093;DHT22;7123;49.468;10.992;2022-08-21T06:54:45;20.90;99.90
14093;DHT22;7123;49.468;10.992;2022-08-21T06:57:12;20.90;99.90
14093;DHT22;7123;49.468;10.992;2022-08-21T06:59:38;20.90;99.90
14093;DHT22;7123;49.468;10.992;2022-08-21T07:02:05;20.90;99.90
14093;DHT22;7123;49.468;10.992;2022-08-21T07:04:32;20.90;99.90
14093;DHT22;7123;49.468;10.992;2022-08-21T07:06:59;20.50;99.90
14093;DHT22;7123;49.468;10.992;2022-08-21T07:09:25;20.30;99.90
14093;DHT22;7123;49.468;10.992;2022-08-21T07:11:54;20.20;99.90
14093;DHT22;7123;49.468;10.992;2022-08-21T07:14:21;20.10;99.90
14093;DHT22;7123;49.468;10.992;2022-08-21T07:16:49;20.20;99.90
14093;DHT22;7123;49.468;10.992;2022-08-21T07:19:18;20.30;99.90
14093;DHT22;7123;49.468;10.992;2022-08-21T07:21:45;20.40;99.90
14093;DHT22;7123;49.468;10.992;2022-08-21T07:24:12;20.40;99.90
14093;DHT22;7123;49.468;10.992;2022-08-21T07:26:39;20.30;99.90
14093;DHT22;7123;49.468;10.992;2022-08-21T07:29:07;20.40;99.90
14093;DHT22;7123;49.468;10.992;2022-08-21T07:31:33;20.60;99.90
14093;DHT22;7123;49.468;10.992;2022-08-21T07:34:00;20.60;99.90
14093;DHT22;7123;49.468;10.992;2022-08-21T07:36:27;20.60;99.90
14093;DHT22;7123;49.468;10.992;2022-08-21T07:38:54;20.60;99.90
14093;DHT22;7123;49.468;10.992;2022-08-21T07:41:24;20.60;99.90
14093;DHT22;7123;49.468;10.992;2022-08-21T07:43:50;20.60;99.90
14093;DHT22;7123;49.468;10.992;2022-08-21T07:46:18;20.70;99.90
14093;DHT22;7123;49.468;10.992;2022-08-21T07:48:46;20.70;99.90
14093;DHT22;7123;49.468;10.992;2022-08-21T07:51:14;20.80;99.90
14093;DHT22;7123;49.468;10.992;2022-08-21T07:53:41;20.90;99.90
14093;DHT22;7123;49.468;10.992;2022-08-21T07:56:09;21.00;99.90
14093;DHT22;7123;49.468;10.992;2022-08-21T07:58:37;21.10;99.90
14093;DHT22;7123;49.468;10.992;2022-08-21T08:01:06;21.20;99.90
14093;DHT22;7123;49.468;10.992;2022-08-21T08:03:33;21.20;99.90
14093;DHT22;7123;49.468;10.992;2022-08-21T08:06:00;21.20;99.90
14093;DHT22;7123;49.468;10.992;2022-08-21T08:08:27;21.20;99.90
14093;DHT22;7123;49.468;10.992;2022-08-21T08:10:56;21.10;99.90
14093;DHT22;7123;49.468;10.992;2022-08-21T08:13:24;21.10;99.90
14093;DHT22;7123;49.468;10.992;2022-08-21T08:15:51;21.10;99.90
14093;DHT22;7123;49.468;10.992;2022-08-21T08:18:18;21.20;99.90
14093;DHT22;7123;49.468;10.992;2022-08-21T08:20:45;21.20;99.90
14093;DHT22;7123;49.468;10.992;2022-08-21T08:23:12;21.30;99.90
14093;DHT22;7123;49.468;10.992;2022-08-21T08:25:41;21.40;99.90
14093;DHT22;7123;49.468;10.992;2022-08-21T08:28:07;21.40;99.90
14093;DHT22;7123;49.468;10.992;2022-08-21T08:30:44;21.40;99.90
14093;DHT22;7123;49.468;10.992;2022-08-21T08:33:11;21.50;99.90
14093;DHT22;7123;49.468;10.992;2022-08-21T08:35:37;21.50;99.90
14093;DHT22;7123;49.468;10.992;2022-08-21T08:38:05;21.50;99.90
14093;DHT22;7123;49.468;10.992;2022-08-21T08:40:38;21.50;99.90
14093;DHT22;7123;49.468;10.992;2022-08-21T08:43:08;21.50;99.90
14093;DHT22;7123;49.468;10.992;2022-08-21T08:45:44;21.40;99.90
14093;DHT22;7123;49.468;10.992;2022-08-21T08:48:26;21.40;99.90
14093;DHT22;7123;49.468;10.992;2022-08-21T08:51:00;21.40;99.90
14093;DHT22;7123;49.468;10.992;2022-08-21T08:53:33;21.20;99.90
14093;DHT22;7123;49.468;10.992;2022-08-21T08:56:02;21.20;99.90
14093;DHT22;7123;49.468;10.992;2022-08-21T08:58:34;21.30;99.90
14093;DHT22;7123;49.468;10.992;2022-08-21T09:01:06;21.30;99.90
14093;DHT22;7123;49.468;10.992;2022-08-21T09:03:37;21.20;99.90
14093;DHT22;7123;49.468;10.992;2022-08-21T09:09:28;21.40;99.90
14093;DHT22;7123;49.468;10.992;2022-08-21T09:14:43;21.50;99.90
14093;DHT22;7123;49.468;10.992;2022-08-21T09:17:19;21.70;99.90
14093;DHT22;7123;49.468;10.992;2022-08-21T09:20:14;21.80;99.90
14093;DHT22;7123;49.468;10.992;2022-08-21T09:25:25;21.90;99.90
14093;DHT22;7123;49.468;10.992;2022-08-21T09:27:53;22.00;99.90
14093;DHT22;7123;49.468;10.992;2022-08-21T09:30:28;22.00;99.90
14093;DHT22;7123;49.468;10.992;2022-08-21T09:32:56;22.10;99.90
14093;DHT22;7123;49.468;10.992;2022-08-21T09:35:24;22.20;99.90
14093;DHT22;7123;49.468;10.992;2022-08-21T09:38:00;22.20;99.90
14093;DHT22;7123;49.468;10.992;2022-08-21T09:43:03;22.20;99.90
14093;DHT22;7123;49.468;10.992;2022-08-21T09:45:31;22.20;99.90
14093;DHT22;7123;49.468;10.992;2022-08-21T09:48:21;22.20;99.90
14093;DHT22;7123;49.468;10.992;2022-08-21T09:50:53;22.20;99.90
14093;DHT22;7123;49.468;10.992;2022-08-21T09:53:28;22.20;99.90
14093;DHT22;7123;49.468;10.992;2022-08-21T09:56:14;22.20;99.90
14093;DHT22;7123;49.468;10.992;2022-08-21T09:59:01;22.20;99.90
14093;DHT22;7123;49.468;10.992;2022-08-21T10:01:27;22.30;99.90
14093;DHT22;7123;49.468;10.992;2022-08-21T10:04:13;22.20;99.90
14093;DHT22;7123;49.468;10.992;2022-08-21T10:06:41;22.30;99.90
14093;DHT22;7123;49.468;10.992;2022-08-21T10:09:16;22.30;99.90
14093;DHT22;7123;49.468;10.992;2022-08-21T10:12:13;22.40;99.90
14093;DHT22;7123;49.468;10.992;2022-08-21T10:15:02;22.40;99.90
14093;DHT22;7123;49.468;10.992;2022-08-21T10:20:23;22.40;99.90
14093;DHT22;7123;49.468;10.992;2022-08-21T10:28:52;22.50;99.90
14093;DHT22;7123;49.468;10.992;2022-08-21T10:31:22;22.60;99.90
14093;DHT22;7123;49.468;10.992;2022-08-21T10:45:36;22.70;99.90
14093;DHT22;7123;49.468;10.992;2022-08-21T10:48:06;22.70;99.90
14093;DHT22;7123;49.468;10.992;2022-08-21T10:53:59;22.50;99.90
14093;DHT22;7123;49.468;10.992;2022-08-21T10:56:35;22.50;99.90
14093;DHT22;7123;49.468;10.992;2022-08-21T11:05:20;22.60;99.90
14093;DHT22;7123;49.468;10.992;2022-08-21T11:07:54;22.60;99.90
14093;DHT22;7123;49.468;10.992;2022-08-21T11:10:29;22.70;99.90
14093;DHT22;7123;49.468;10.992;2022-08-21T11:13:13;22.70;99.90
14093;DHT22;7123;49.468;10.992;2022-08-21T11:15:50;22.70;99.90
14093;DHT22;7123;49.468;10.992;2022-08-21T11:18:32;22.70;99.90
14093;DHT22;7123;49.468;10.992;2022-08-21T11:29:31;22.80;99.90
14093;DHT22;7123;49.468;10.992;2022-08-21T11:38:22;22.80;99.90
14093;DHT22;7123;49.468;10.992;2022-08-21T11:43:38;22.90;99.90
14093;DHT22;7123;49.468;10.992;2022-08-21T11:51:37;22.90;99.90
14093;DHT22;7123;49.468;10.992;2022-08-21T11:54:28;22.90;99.90
14093;DHT22;7123;49.468;10.992;2022-08-21T11:57:04;22.90;99.90
14093;DHT22;7123;49.468;10.992;2022-08-21T11:59:39;22.90;99.90
14093;DHT22;7123;49.468;10.992;2022-08-21T12:02:15;23.00;99.90
14093;DHT22;7123;49.468;10.992;2022-08-21T12:04:52;23.00;99.90
14093;DHT22;7123;49.468;10.992;2022-08-21T12:07:59;23.10;99.90
14093;DHT22;7123;49.468;10.992;2022-08-21T12:10:33;23.10;99.90
14093;DHT22;7123;49.468;10.992;2022-08-21T12:13:27;23.10;99.90
14093;DHT22;7123;49.468;10.992;2022-08-21T12:16:13;23.10;99.90
14093;DHT22;7123;49.468;10.992;2022-08-21T12:18:42;23.20;99.90
14093;DHT22;7123;49.468;10.992;2022-08-21T12:21:27;23.20;99.90
14093;DHT22;7123;49.468;10.992;2022-08-21T12:24:05;23.20;99.90
14093;DHT22;7123;49.468;10.992;2022-08-21T12:26:50;23.30;99.90
14093;DHT22;7123;49.468;10.992;2022-08-21T12:29:29;23.30;99.90
14093;DHT22;7123;49.468;10.992;2022-08-21T12:32:26;23.40;99.90
14093;DHT22;7123;49.468;10.992;2022-08-21T12:37:31;23.50;99.90
14093;DHT22;7123;49.468;10.992;2022-08-21T12:40:04;23.50;99.90
14093;DHT22;7123;49.468;10.992;2022-08-21T12:42:43;23.60;99.90
14093;DHT22;7123;49.468;10.992;2022-08-21T12:45:33;23.60;99.90
14093;DHT22;7123;49.468;10.992;2022-08-21T12:48:07;23.70;99.90
14093;DHT22;7123;49.468;10.992;2022-08-21T12:50:45;23.70;99.90
14093;DHT22;7123;49.468;10.992;2022-08-21T12:55:56;23.60;99.90
14093;DHT22;7123;49.468;10.992;2022-08-21T12:58:28;23.60;99.90
14093;DHT22;7123;49.468;10.992;2022-08-21T13:01:03;23.70;99.90
14093;DHT22;7123;49.468;10.992;2022-08-21T13:03:31;23.80;99.90
14093;DHT22;7123;49.468;10.992;2022-08-21T13:06:03;23.90;99.90
14093;DHT22;7123;49.468;10.992;2022-08-21T13:08:33;24.00;99.90
14093;DHT22;7123;49.468;10.992;2022-08-21T13:11:07;24.00;99.90
14093;DHT22;7123;49.468;10.992;2022-08-21T13:13:41;24.10;99.90
14093;DHT22;7123;49.468;10.992;2022-08-21T13:16:22;24.10;99.90
14093;DHT22;7123;49.468;10.992;2022-08-21T13:19:06;24.10;99.90
14093;DHT22;7123;49.468;10.992;2022-08-21T13:21:41;24.10;99.90
14093;DHT22;7123;49.468;10.992;2022-08-21T13:24:23;24.10;99.90
14093;DHT22;7123;49.468;10.992;2022-08-21T13:27:27;24.00;99.90
14093;DHT22;7123;49.468;10.992;2022-08-21T13:30:18;24.00;99.90
14093;DHT22;7123;49.468;10.992;2022-08-21T13:32:50;24.00;99.90
14093;DHT22;7123;49.468;10.992;2022-08-21T13:35:24;24.00;99.90
14093;DHT22;7123;49.468;10.992;2022-08-21T13:37:52;24.20;99.90
14093;DHT22;7123;49.468;10.992;2022-08-21T13:40:25;24.40;99.90
14093;DHT22;7123;49.468;10.992;2022-08-21T13:42:52;24.50;99.90
14093;DHT22;7123;49.468;10.992;2022-08-21T13:45:26;24.60;99.90
14093;DHT22;7123;49.468;10.992;2022-08-21T13:47:53;24.90;99.90
14093;DHT22;7123;49.468;10.992;2022-08-21T13:50:23;25.00;99.90
14093;DHT22;7123;49.468;10.992;2022-08-21T13:53:50;25.10;99.90
14093;DHT22;7123;49.468;10.992;2022-08-21T13:56:25;24.90;99.90
14093;DHT22;7123;49.468;10.992;2022-08-21T13:58:54;24.90;99.90
14093;DHT22;7123;49.468;10.992;2022-08-21T14:01:23;24.90;99.90
14093;DHT22;7123;49.468;10.992;2022-08-21T14:03:54;24.70;99.90
14093;DHT22;7123;49.468;10.992;2022-08-21T14:06:26;24.70;99.90
14093;DHT22;7123;49.468;10.992;2022-08-21T14:08:58;24.70;99.90
14093;DHT22;7123;49.468;10.992;2022-08-21T14:11:26;25.00;99.90
14093;DHT22;7123;49.468;10.992;2022-08-21T14:14:02;25.40;99.90
14093;DHT22;7123;49.468;10.992;2022-08-21T14:21:49;26.30;99.90
14093;DHT22;7123;49.468;10.992;2022-08-21T14:26:55;26.10;99.90
14093;DHT22;7123;49.468;10.992;2022-08-21T14:29:24;26.00;99.90
14093;DHT22;7123;49.468;10.992;2022-08-21T14:31:58;26.10;99.90
14093;DHT22;7123;49.468;10.992;2022-08-21T14:34:27;26.00;99.90
14093;DHT22;7123;49.468;10.992;2022-08-21T14:37:00;25.90;99.90
14093;DHT22;7123;49.468;10.992;2022-08-21T14:39:27;25.90;99.90
14093;DHT22;7123;49.468;10.992;2022-08-21T14:41:54;26.10;99.90
14093;DHT22;7123;49.468;10.992;2022-08-21T14:44:24;26.50;99.90
14093;DHT22;7123;49.468;10.992;2022-08-21T14:46:51;26.70;99.90
14093;DHT22;7123;49.468;10.992;2022-08-21T14:49:24;27.00;99.90
14093;DHT22;7123;49.468;10.992;2022-08-21T14:51:54;27.00;99.90
14093;DHT22;7123;49.468;10.992;2022-08-21T14:54:25;27.10;99.90
14093;DHT22;7123;49.468;10.992;2022-08-21T14:57:04;27.10;99.90
14093;DHT22;7123;49.468;10.992;2022-08-21T14:59:32;27.40;99.90
14093;DHT22;7123;49.468;10.992;2022-08-21T15:01:59;27.60;99.90
14093;DHT22;7123;49.468;10.992;2022-08-21T15:04:26;27.70;99.90
14093;DHT22;7123;49.468;10.992;2022-08-21T15:06:53;27.90;99.90
14093;DHT22;7123;49.468;10.992;2022-08-21T15:09:20;27.90;99.90
14093;DHT22;7123;49.468;10.992;2022-08-21T15:11:47;27.80;99.90
14093;DHT22;7123;49.468;10.992;2022-08-21T15:14:20;27.70;99.90
14093;DHT22;7123;49.468;10.992;2022-08-21T15:16:47;27.90;99.90
14093;DHT22;7123;49.468;10.992;2022-08-21T15:19:14;27.90;99.90
14093;DHT22;7123;49.468;10.992;2022-08-21T15:21:41;27.70;99.90
14093;DHT22;7123;49.468;10.992;2022-08-21T15:24:08;28.10;99.90
14093;DHT22;7123;49.468;10.992;2022-08-21T15:26:35;28.40;99.90
14093;DHT22;7123;49.468;10.992;2022-08-21T15:29:04;28.80;99.90
14093;DHT22;7123;49.468;10.992;2022-08-21T15:31:32;29.10;99.90
14093;DHT22;7123;49.468;10.992;2022-08-21T15:33:59;29.40;99.90
14093;DHT22;7123;49.468;10.992;2022-08-21T15:36:26;29.70;99.90
14093;DHT22;7123;49.468;10.992;2022-08-21T15:38:52;30.00;99.60
14093;DHT22;7123;49.468;10.992;2022-08-21T15:41:19;29.60;98.90
14093;DHT22;7123;49.468;10.992;2022-08-21T15:43:48;28.90;99.90
14093;DHT22;7123;49.468;10.992;2022-08-21T15:46:18;28.40;99.90
14093;DHT22;7123;49.468;10.992;2022-08-21T15:48:45;28.00;99.90
14093;DHT22;7123;49.468;10.992;2022-08-21T15:51:13;28.10;99.90
14093;DHT22;7123;49.468;10.992;2022-08-21T15:53:41;28.50;99.90
14093;DHT22;7123;49.468;10.992;2022-08-21T15:56:22;28.90;99.90
14093;DHT22;7123;49.468;10.992;2022-08-21T15:58:51;29.30;99.70
14093;DHT22;7123;49.468;10.992;2022-08-21T16:01:20;29.30;99.40
14093;DHT22;7123;49.468;10.992;2022-08-21T16:03:49;29.40;99.40
14093;DHT22;7123;49.468;10.992;2022-08-21T16:06:16;29.80;99.20
14093;DHT22;7123;49.468;10.992;2022-08-21T16:09:03;30.20;97.90
14093;DHT22;7123;49.468;10.992;2022-08-21T16:11:30;30.90;96.20
14093;DHT22;7123;49.468;10.992;2022-08-21T16:13:57;30.40;95.90
14093;DHT22;7123;49.468;10.992;2022-08-21T16:16:24;30.10;96.20
14093;DHT22;7123;49.468;10.992;2022-08-21T16:18:51;29.70;95.40
14093;DHT22;7123;49.468;10.992;2022-08-21T16:21:20;29.60;95.80
14093;DHT22;7123;49.468;10.992;2022-08-21T16:23:47;29.20;96.00
14093;DHT22;7123;49.468;10.992;2022-08-21T16:26:14;29.20;97.30
14093;DHT22;7123;49.468;10.992;2022-08-21T16:28:44;29.40;96.20
14093;DHT22;7123;49.468;10.992;2022-08-21T16:31:13;29.20;96.10
14093;DHT22;7123;49.468;10.992;2022-08-21T16:33:50;29.60;95.50
14093;DHT22;7123;49.468;10.992;2022-08-21T16:36:23;30.80;95.10
14093;DHT22;7123;49.468;10.992;2022-08-21T16:38:52;30.70;93.20
14093;DHT22;7123;49.468;10.992;2022-08-21T16:41:22;30.70;92.70
14093;DHT22;7123;49.468;10.992;2022-08-21T16:43:51;31.10;91.80
14093;DHT22;7123;49.468;10.992;2022-08-21T16:46:19;31.00;91.60
14093;DHT22;7123;49.468;10.992;2022-08-21T16:48:47;31.30;90.90
14093;DHT22;7123;49.468;10.992;2022-08-21T16:51:16;31.80;89.00
14093;DHT22;7123;49.468;10.992;2022-08-21T16:53:43;32.00;86.90
14093;DHT22;7123;49.468;10.992;2022-08-21T16:56:12;32.10;87.10
14093;DHT22;7123;49.468;10.992;2022-08-21T16:58:44;32.50;85.20
14093;DHT22;7123;49.468;10.992;2022-08-21T17:01:14;32.90;82.60
14093;DHT22;7123;49.468;10.992;2022-08-21T17:03:44;33.30;78.50
14093;DHT22;7123;49.468;10.992;2022-08-21T17:06:13;33.30;77.60
14093;DHT22;7123;49.468;10.992;2022-08-21T17:08:41;33.40;77.50
14093;DHT22;7123;49.468;10.992;2022-08-21T17:11:20;33.30;74.30
14093;DHT22;7123;49.468;10.992;2022-08-21T17:14:07;33.30;74.10